createdAt,value
2023-05-21T00:02:06.337Z,7.13
2023-05-21T00:04:33.885Z,7.63
2023-05-21T00:07:01.332Z,7.05
2023-05-21T00:09:28.587Z,5.88
2023-05-21T00:11:55.808Z,7.38
2023-05-21T00:14:23.008Z,6.90
2023-05-21T00:16:50.947Z,10.75
2023-05-21T00:19:18.335Z,8.07
2023-05-21T00:21:48.432Z,8.10
2023-05-21T00:24:15.811Z,8.40
2023-05-21T00:26:43.318Z,8.80
2023-05-21T00:29:10.567Z,8.13
2023-05-21T00:31:37.807Z,8.15
2023-05-21T00:34:05.107Z,7.75
2023-05-21T00:36:34.582Z,6.95
2023-05-21T00:39:02.491Z,9.07
2023-05-21T00:41:30.301Z,6.60
2023-05-21T00:44:00.333Z,8.55
2023-05-21T00:46:30.775Z,7.95
2023-05-21T00:48:58.422Z,8.48
2023-05-21T00:51:30.151Z,9.40
2023-05-21T00:53:57.964Z,10.05
2023-05-21T00:56:27.261Z,7.95
2023-05-21T00:58:57.118Z,6.43
2023-05-21T01:01:27.933Z,10.93
2023-05-21T01:03:57.858Z,10.10
2023-05-21T01:06:25.162Z,9.25
2023-05-21T01:08:52.333Z,10.70
2023-05-21T01:11:19.596Z,8.93
2023-05-21T01:13:47.272Z,9.15
2023-05-21T01:16:14.833Z,8.43
2023-05-21T01:18:43.761Z,7.93
2023-05-21T01:21:12.768Z,9.15
2023-05-21T01:23:40.244Z,9.90
2023-05-21T01:26:08.498Z,9.63
2023-05-21T01:28:35.784Z,8.43
2023-05-21T01:31:19.924Z,10.80
2023-05-21T01:33:49.615Z,10.48
2023-05-21T01:36:24.431Z,9.73
2023-05-21T01:38:57.826Z,9.20
2023-05-21T01:41:26.411Z,8.05
2023-05-21T01:43:54.563Z,8.48
2023-05-21T01:46:23.803Z,10.15
2023-05-21T01:48:51.931Z,9.50
2023-05-21T01:51:19.603Z,9.13
2023-05-21T01:53:46.940Z,10.65
2023-05-21T01:56:16.089Z,8.88
2023-05-21T01:58:44.049Z,9.15
2023-05-21T02:01:11.994Z,8.60
2023-05-21T02:03:39.228Z,9.52
2023-05-21T02:06:06.448Z,8.50
2023-05-21T02:08:33.685Z,8.80
2023-05-21T02:11:00.911Z,9.40
2023-05-21T02:13:29.197Z,10.35
2023-05-21T02:15:56.512Z,9.73
2023-05-21T02:18:24.549Z,10.30
2023-05-21T02:20:51.851Z,12.75
2023-05-21T02:23:19.089Z,9.93
2023-05-21T02:25:46.513Z,10.02
2023-05-21T02:28:14.305Z,10.57
2023-05-21T02:30:41.461Z,9.75
2023-05-21T02:33:09.221Z,8.35
2023-05-21T02:35:36.864Z,7.82
2023-05-21T02:38:04.374Z,10.70
2023-05-21T02:40:33.121Z,10.30
2023-05-21T02:43:00.512Z,10.77
2023-05-21T02:45:29.654Z,10.02
2023-05-21T02:47:57.118Z,9.82
2023-05-21T02:50:24.744Z,9.75
2023-05-21T02:52:56.440Z,9.15
2023-05-21T02:55:23.561Z,12.10
2023-05-21T02:57:51.197Z,8.43
2023-05-21T03:00:18.484Z,11.30
2023-05-21T03:02:45.932Z,9.07
2023-05-21T03:05:13.281Z,9.55
2023-05-21T03:07:41.897Z,9.18
2023-05-21T03:10:09.334Z,8.63
2023-05-21T03:12:37.944Z,9.60
2023-05-21T03:15:05.216Z,8.88
2023-05-21T03:17:32.432Z,10.00
2023-05-21T03:19:59.661Z,8.82
2023-05-21T03:22:26.801Z,10.07
2023-05-21T03:24:54.420Z,8.48
2023-05-21T03:27:21.653Z,8.63
2023-05-21T03:29:48.920Z,10.40
2023-05-21T03:32:16.941Z,10.02
2023-05-21T03:34:46.096Z,11.25
2023-05-21T03:37:13.241Z,8.93
2023-05-21T03:39:40.406Z,9.68
2023-05-21T03:42:07.568Z,10.93
2023-05-21T03:44:41.637Z,9.57
2023-05-21T03:47:31.965Z,9.35
2023-05-21T03:50:01.124Z,9.52
2023-05-21T03:52:28.336Z,8.52
2023-05-21T03:54:56.133Z,9.93
2023-05-21T03:57:23.433Z,9.95
2023-05-21T03:59:51.034Z,9.90
2023-05-21T04:02:18.466Z,9.25
2023-05-21T04:04:46.719Z,10.30
2023-05-21T04:07:15.344Z,8.88
2023-05-21T04:09:42.935Z,11.38
2023-05-21T04:12:10.142Z,8.57
2023-05-21T04:14:37.667Z,10.45
2023-05-21T04:17:05.407Z,10.10
2023-05-21T04:19:33.226Z,10.85
2023-05-21T04:22:01.034Z,9.93
2023-05-21T04:24:28.270Z,10.75
2023-05-21T04:27:12.130Z,9.43
2023-05-21T04:29:42.771Z,10.20
2023-05-21T04:32:10.112Z,10.75
2023-05-21T04:34:37.842Z,9.35
2023-05-21T04:37:05.155Z,8.30
2023-05-21T04:39:32.301Z,10.48
2023-05-21T04:41:59.468Z,10.93
2023-05-21T04:44:26.862Z,9.68
2023-05-21T04:46:54.910Z,10.32
2023-05-21T04:49:23.494Z,9.02
2023-05-21T04:51:50.703Z,9.40
2023-05-21T04:54:17.921Z,9.18
2023-05-21T04:56:45.161Z,9.23
2023-05-21T04:59:12.406Z,9.35
2023-05-21T05:01:39.578Z,9.93
2023-05-21T05:04:06.863Z,9.45
2023-05-21T05:06:34.124Z,9.77
2023-05-21T05:09:01.241Z,9.55
2023-05-21T05:11:28.568Z,8.25
2023-05-21T05:13:56.048Z,8.60
2023-05-21T05:16:25.782Z,10.18
2023-05-21T05:18:53.942Z,9.00
2023-05-21T05:21:23.588Z,10.00
2023-05-21T05:23:50.771Z,7.43
2023-05-21T05:26:18.837Z,10.77
2023-05-21T05:28:46.346Z,9.55
2023-05-21T05:31:13.896Z,11.35
2023-05-21T05:33:42.967Z,10.40
2023-05-21T05:36:10.446Z,8.70
2023-05-21T05:38:38.154Z,9.27
2023-05-21T05:41:05.407Z,9.10
2023-05-21T05:43:32.633Z,12.60
2023-05-21T05:46:00.901Z,9.00
2023-05-21T05:48:28.293Z,11.30
2023-05-21T05:50:57.847Z,12.48
2023-05-21T05:53:26.496Z,10.25
2023-05-21T05:55:54.390Z,8.23
2023-05-21T05:58:21.687Z,9.27
2023-05-21T06:01:08.313Z,10.80
2023-05-21T06:03:35.620Z,12.23
2023-05-21T06:06:11.582Z,9.18
2023-05-21T06:08:40.540Z,10.38
2023-05-21T06:11:07.849Z,9.07
2023-05-21T06:13:35.208Z,11.98
2023-05-21T06:16:04.444Z,9.38
2023-05-21T06:18:31.654Z,12.50
2023-05-21T06:20:58.823Z,9.35
2023-05-21T06:23:26.162Z,12.63
2023-05-21T06:25:53.659Z,13.68
2023-05-21T06:28:20.882Z,12.10
2023-05-21T06:30:49.360Z,10.50
2023-05-21T06:33:16.753Z,11.43
2023-05-21T06:35:44.657Z,13.07
2023-05-21T06:38:12.456Z,11.93
2023-05-21T06:40:39.614Z,9.65
2023-05-21T06:43:09.492Z,11.25
2023-05-21T06:45:39.772Z,10.15
2023-05-21T06:48:33.336Z,11.40
2023-05-21T06:51:00.513Z,11.30
2023-05-21T06:53:28.671Z,12.05
2023-05-21T06:55:55.949Z,10.73
2023-05-21T06:58:35.617Z,9.45
2023-05-21T07:01:02.981Z,11.77
2023-05-21T07:03:30.736Z,10.43
2023-05-21T07:05:58.516Z,11.55
2023-05-21T07:08:26.399Z,12.00
2023-05-21T07:10:56.330Z,12.80
2023-05-21T07:13:23.694Z,9.82
2023-05-21T07:15:51.211Z,12.52
2023-05-21T07:18:18.457Z,12.23
2023-05-21T07:20:45.691Z,12.48
2023-05-21T07:23:15.705Z,10.73
2023-05-21T07:25:42.852Z,16.45
2023-05-21T07:28:10.168Z,13.13
2023-05-21T07:30:37.495Z,12.38
2023-05-21T07:33:10.273Z,15.07
2023-05-21T07:35:37.826Z,10.90
2023-05-21T07:38:05.415Z,12.32
2023-05-21T07:40:32.834Z,9.95
2023-05-21T07:43:01.273Z,13.90
2023-05-21T07:45:30.757Z,10.55
2023-05-21T07:47:58.353Z,12.43
2023-05-21T07:50:26.702Z,11.70
2023-05-21T07:52:55.178Z,10.05
2023-05-21T07:55:22.399Z,12.90
2023-05-21T07:57:52.324Z,11.82
2023-05-21T08:00:25.033Z,9.73
2023-05-21T08:02:55.281Z,10.43
2023-05-21T08:05:23.603Z,10.45
2023-05-21T08:07:51.020Z,11.10
2023-05-21T08:10:19.537Z,11.05
2023-05-21T08:12:48.734Z,10.63
2023-05-21T08:15:16.184Z,9.02
2023-05-21T08:17:46.058Z,14.63
2023-05-21T08:20:14.375Z,12.18
2023-05-21T08:22:43.691Z,10.77
2023-05-21T08:25:11.228Z,10.93
2023-05-21T08:27:38.459Z,11.38
2023-05-21T08:30:06.183Z,10.77
2023-05-21T08:32:33.434Z,11.65
2023-05-21T08:35:01.675Z,15.00
2023-05-21T08:37:43.809Z,11.27
2023-05-21T08:40:17.781Z,13.07
2023-05-21T08:42:49.230Z,13.02
2023-05-21T08:45:21.976Z,11.10
2023-05-21T08:47:55.506Z,11.30
2023-05-21T08:50:25.071Z,10.55
2023-05-21T08:52:55.411Z,11.40
2023-05-21T08:55:23.656Z,10.75
2023-05-21T08:57:51.473Z,11.60
2023-05-21T09:00:21.156Z,10.43
2023-05-21T09:02:48.522Z,10.82
2023-05-21T09:05:19.359Z,10.82
2023-05-21T09:08:00.910Z,10.65
2023-05-21T09:10:38.756Z,11.52
2023-05-21T09:13:08.029Z,11.25
2023-05-21T09:15:35.615Z,11.65
2023-05-21T09:18:03.065Z,11.55
2023-05-21T09:20:44.163Z,10.88
2023-05-21T09:23:16.919Z,10.27
2023-05-21T09:25:49.018Z,12.27
2023-05-21T09:28:23.696Z,12.25
2023-05-21T09:30:56.404Z,12.25
2023-05-21T09:33:27.467Z,12.23
2023-05-21T09:35:55.500Z,10.02
2023-05-21T09:38:23.968Z,9.90
2023-05-21T09:40:51.597Z,10.55
2023-05-21T09:43:18.877Z,10.70
2023-05-21T09:45:53.134Z,10.88
2023-05-21T09:48:34.150Z,12.18
2023-05-21T09:51:16.179Z,12.70
2023-05-21T09:53:53.793Z,11.30
2023-05-21T09:56:29.453Z,10.52
2023-05-21T09:59:01.315Z,11.07
2023-05-21T10:01:28.929Z,13.43
2023-05-21T10:03:57.256Z,12.23
2023-05-21T10:06:25.495Z,10.05
2023-05-21T10:08:54.330Z,10.88
2023-05-21T10:11:23.957Z,14.18
2023-05-21T10:13:54.889Z,10.20
2023-05-21T10:16:22.502Z,9.77
2023-05-21T10:18:50.361Z,10.55
2023-05-21T10:21:17.741Z,11.40
2023-05-21T10:23:46.366Z,12.25
2023-05-21T10:26:13.815Z,9.68
2023-05-21T10:28:41.297Z,12.93
2023-05-21T10:31:08.838Z,10.60
2023-05-21T10:33:37.121Z,12.02
2023-05-21T10:36:04.512Z,9.95
2023-05-21T10:38:32.836Z,11.30
2023-05-21T10:41:00.623Z,11.35
2023-05-21T10:43:36.962Z,11.48
2023-05-21T10:46:37.681Z,11.10
2023-05-21T10:49:25.319Z,11.25
2023-05-21T10:52:09.781Z,10.98
2023-05-21T10:55:11.111Z,13.77
2023-05-21T10:57:53.348Z,11.40
2023-05-21T11:00:21.234Z,12.35
2023-05-21T11:02:53.055Z,11.85
2023-05-21T11:05:43.653Z,9.57
2023-05-21T11:08:23.384Z,11.65
2023-05-21T11:10:54.885Z,13.43
2023-05-21T11:13:22.321Z,11.65
2023-05-21T11:16:14.006Z,10.55
2023-05-21T11:18:41.189Z,9.85
2023-05-21T11:21:08.410Z,10.95
2023-05-21T11:23:54.523Z,11.38
2023-05-21T11:26:22.872Z,13.32
2023-05-21T11:29:05.387Z,12.82
2023-05-21T11:31:38.141Z,12.43
2023-05-21T11:34:11.563Z,13.15
2023-05-21T11:36:39.893Z,13.00
2023-05-21T11:39:22.911Z,13.27
2023-05-21T11:41:50.891Z,11.98
2023-05-21T11:44:18.056Z,11.18
2023-05-21T11:46:45.243Z,12.38
2023-05-21T11:49:12.773Z,11.80
2023-05-21T11:51:40.820Z,11.82
2023-05-21T11:54:10.112Z,16.55
2023-05-21T11:56:41.831Z,14.18
2023-05-21T11:59:17.909Z,13.75
2023-05-21T12:01:45.864Z,11.32
2023-05-21T12:04:13.507Z,13.15
2023-05-21T12:06:43.363Z,12.55
2023-05-21T12:09:11.248Z,13.07
2023-05-21T12:11:41.811Z,14.02
2023-05-21T12:14:09.767Z,12.80
2023-05-21T12:16:37.078Z,13.02
2023-05-21T12:19:04.736Z,13.77
2023-05-21T12:21:32.442Z,14.00
2023-05-21T12:23:59.740Z,14.05
2023-05-21T12:26:27.675Z,13.13
2023-05-21T12:28:55.551Z,14.10
2023-05-21T12:31:23.653Z,13.80
2023-05-21T12:33:51.491Z,13.23
2023-05-21T12:36:31.956Z,11.98
2023-05-21T12:38:59.225Z,17.27
2023-05-21T12:41:27.934Z,14.88
2023-05-21T12:43:55.054Z,13.13
2023-05-21T12:46:23.491Z,12.98
2023-05-21T12:48:51.591Z,15.57
2023-05-21T12:51:18.786Z,15.15
2023-05-21T12:53:45.953Z,13.63
2023-05-21T12:56:13.972Z,14.20
2023-05-21T12:58:41.875Z,12.77
2023-05-21T13:01:10.011Z,14.88
2023-05-21T13:03:44.184Z,15.82
2023-05-21T13:06:11.352Z,14.80
2023-05-21T13:08:38.494Z,15.68
2023-05-21T13:11:05.699Z,13.93
2023-05-21T13:13:32.907Z,12.02
2023-05-21T13:16:01.956Z,11.70
2023-05-21T13:18:29.236Z,12.80
2023-05-21T13:20:56.473Z,15.75
2023-05-21T13:23:23.777Z,14.45
2023-05-21T13:25:50.972Z,11.82
2023-05-21T13:28:18.200Z,11.02
2023-05-21T13:30:45.403Z,12.30
2023-05-21T13:33:13.242Z,13.20
2023-05-21T13:35:40.856Z,12.68
2023-05-21T13:38:08.184Z,11.45
2023-05-21T13:40:38.126Z,11.27
2023-05-21T13:43:06.232Z,11.20
2023-05-21T13:45:33.947Z,11.55
2023-05-21T13:48:01.489Z,15.15
2023-05-21T13:50:28.884Z,14.40
2023-05-21T13:52:56.124Z,11.65
2023-05-21T13:55:23.407Z,13.68
2023-05-21T13:57:50.616Z,11.38
2023-05-21T14:00:17.859Z,12.40
2023-05-21T14:02:45.377Z,12.70
2023-05-21T14:05:13.130Z,10.30
2023-05-21T14:07:40.557Z,15.00
2023-05-21T14:10:08.051Z,11.25
2023-05-21T14:12:35.420Z,14.15
2023-05-21T14:15:02.711Z,22.25
2023-05-21T14:17:29.951Z,10.93
2023-05-21T14:19:57.487Z,11.48
2023-05-21T14:22:24.705Z,10.13
2023-05-21T14:24:52.794Z,10.52
2023-05-21T14:27:19.946Z,9.55
2023-05-21T14:29:47.104Z,10.77
2023-05-21T14:32:14.334Z,14.85
2023-05-21T14:34:41.452Z,12.52
2023-05-21T14:37:08.609Z,11.27
2023-05-21T14:39:35.929Z,12.05
2023-05-21T14:42:06.264Z,11.20
2023-05-21T14:44:33.411Z,10.43
2023-05-21T14:47:00.528Z,11.07
2023-05-21T14:49:27.835Z,14.05
2023-05-21T14:51:55.016Z,12.35
2023-05-21T14:54:22.257Z,11.88
2023-05-21T14:56:49.385Z,10.63
2023-05-21T14:59:16.536Z,10.30
2023-05-21T15:01:44.125Z,9.50
2023-05-21T15:04:11.969Z,11.20
2023-05-21T15:06:39.248Z,11.95
2023-05-21T15:09:06.355Z,11.23
2023-05-21T15:11:34.154Z,12.10
2023-05-21T15:14:01.456Z,10.65
2023-05-21T15:16:28.739Z,12.65
2023-05-21T15:18:56.638Z,11.25
2023-05-21T15:21:25.761Z,10.02
2023-05-21T15:23:54.460Z,10.18
2023-05-21T15:26:21.738Z,10.30
2023-05-21T15:28:49.064Z,13.00
2023-05-21T15:31:16.336Z,10.23
2023-05-21T15:33:43.537Z,11.43
2023-05-21T15:36:10.859Z,13.60
2023-05-21T15:38:38.084Z,12.13
2023-05-21T15:41:06.705Z,16.45
2023-05-21T15:43:33.913Z,11.38
2023-05-21T15:46:01.155Z,13.05
2023-05-21T15:48:28.328Z,12.15
2023-05-21T15:50:55.465Z,10.80
2023-05-21T15:53:22.553Z,10.85
2023-05-21T15:55:49.747Z,15.02
2023-05-21T15:58:17.111Z,11.68
2023-05-21T16:00:44.429Z,10.55
2023-05-21T16:03:12.652Z,11.02
2023-05-21T16:05:39.898Z,13.18
2023-05-21T16:08:07.133Z,15.88
2023-05-21T16:10:34.462Z,13.15
2023-05-21T16:13:01.873Z,16.38
2023-05-21T16:15:32.362Z,11.85
2023-05-21T16:17:59.645Z,9.60
2023-05-21T16:20:26.886Z,10.68
2023-05-21T16:22:54.102Z,12.27
2023-05-21T16:25:21.360Z,12.82
2023-05-21T16:27:49.381Z,15.25
2023-05-21T16:30:16.592Z,12.02
2023-05-21T16:32:43.896Z,15.45
2023-05-21T16:35:11.110Z,12.60
2023-05-21T16:37:38.296Z,14.27
2023-05-21T16:40:05.929Z,11.82
2023-05-21T16:42:33.104Z,12.13
2023-05-21T16:45:00.329Z,13.30
2023-05-21T16:47:27.504Z,14.45
2023-05-21T16:49:55.848Z,13.00
2023-05-21T16:52:23.762Z,13.98
2023-05-21T16:54:51.422Z,14.60
2023-05-21T16:57:18.558Z,17.77
2023-05-21T16:59:45.886Z,12.25
2023-05-21T17:02:13.798Z,12.68
2023-05-21T17:04:41.041Z,12.57
2023-05-21T17:07:08.318Z,13.38
2023-05-21T17:09:35.684Z,12.45
2023-05-21T17:12:02.972Z,16.42
2023-05-21T17:14:34.287Z,11.55
2023-05-21T17:17:02.370Z,16.15
2023-05-21T17:19:29.775Z,16.45
2023-05-21T17:21:57.350Z,13.93
2023-05-21T17:24:24.818Z,17.38
2023-05-21T17:26:53.201Z,16.48
2023-05-21T17:29:20.468Z,16.80
2023-05-21T17:31:47.806Z,14.45
2023-05-21T17:34:15.054Z,16.50
2023-05-21T17:36:42.350Z,15.27
2023-05-21T17:39:09.518Z,14.38
2023-05-21T17:41:36.919Z,12.73
2023-05-21T17:44:04.089Z,16.15
2023-05-21T17:46:31.231Z,14.02
2023-05-21T17:48:58.405Z,18.52
2023-05-21T17:51:25.642Z,18.38
2023-05-21T17:53:52.870Z,18.02
2023-05-21T17:56:20.018Z,15.90
2023-05-21T17:58:47.296Z,15.70
2023-05-21T18:01:14.451Z,15.20
2023-05-21T18:03:41.803Z,17.02
2023-05-21T18:06:09.680Z,14.65
2023-05-21T18:08:36.963Z,14.55
2023-05-21T18:11:04.832Z,16.77
2023-05-21T18:13:32.110Z,15.27
2023-05-21T18:15:59.556Z,16.15
2023-05-21T18:18:26.814Z,15.40
2023-05-21T18:20:54.093Z,16.10
2023-05-21T18:23:21.404Z,15.40
2023-05-21T18:25:48.628Z,17.05
2023-05-21T18:28:15.831Z,19.80
2023-05-21T18:30:43.002Z,18.20
2023-05-21T18:33:11.177Z,16.85
2023-05-21T18:35:38.518Z,16.58
2023-05-21T18:38:09.848Z,18.85
2023-05-21T18:40:38.131Z,19.80
2023-05-21T18:43:06.479Z,15.68
2023-05-21T18:45:34.369Z,20.88
2023-05-21T18:48:03.175Z,16.02
2023-05-21T18:50:31.700Z,19.73
2023-05-21T18:52:59.148Z,20.50
2023-05-21T18:55:26.604Z,18.75
2023-05-21T18:57:53.884Z,20.33
2023-05-21T19:00:21.235Z,18.17
2023-05-21T19:02:48.624Z,19.70
2023-05-21T19:05:16.226Z,22.33
2023-05-21T19:07:43.560Z,22.42
2023-05-21T19:10:12.065Z,24.17
2023-05-21T19:12:39.567Z,19.42
2023-05-21T19:15:07.338Z,23.70
2023-05-21T19:17:36.233Z,23.48
2023-05-21T19:20:05.344Z,23.73
2023-05-21T19:22:32.816Z,19.45
2023-05-21T19:25:00.798Z,20.05
2023-05-21T19:27:29.334Z,20.27
2023-05-21T19:29:56.581Z,22.55
2023-05-21T19:32:24.051Z,21.63
2023-05-21T19:34:52.222Z,20.13
2023-05-21T19:37:19.537Z,23.17
2023-05-21T19:39:49.943Z,22.92
2023-05-21T19:42:18.102Z,24.35
2023-05-21T19:44:45.530Z,21.45
2023-05-21T19:47:12.735Z,23.05
2023-05-21T19:49:39.974Z,22.17
2023-05-21T19:52:07.301Z,23.77
2023-05-21T19:54:34.495Z,24.30
2023-05-21T19:57:01.896Z,21.15
2023-05-21T19:59:29.039Z,27.13
2023-05-21T20:01:56.421Z,21.00
2023-05-21T20:04:23.700Z,21.15
2023-05-21T20:06:51.993Z,20.65
2023-05-21T20:09:19.217Z,23.88
2023-05-21T20:11:48.122Z,23.33
2023-05-21T20:14:15.351Z,19.48
2023-05-21T20:16:42.588Z,20.38
2023-05-21T20:19:10.746Z,20.65
2023-05-21T20:21:38.133Z,21.45
2023-05-21T20:24:05.786Z,21.17
2023-05-21T20:26:35.019Z,24.20
2023-05-21T20:29:02.287Z,20.88
2023-05-21T20:31:29.643Z,19.77
2023-05-21T20:33:56.917Z,19.75
2023-05-21T20:36:25.762Z,21.05
2023-05-21T20:38:52.990Z,23.70
2023-05-21T20:41:20.215Z,20.67
2023-05-21T20:43:47.453Z,21.35
2023-05-21T20:46:18.271Z,25.55
2023-05-21T20:48:45.666Z,23.75
2023-05-21T20:51:12.846Z,21.90
2023-05-21T20:53:39.979Z,24.63
2023-05-21T20:56:08.611Z,24.88
2023-05-21T20:58:35.900Z,21.00
2023-05-21T21:01:03.669Z,24.42
2023-05-21T21:03:33.777Z,21.50
2023-05-21T21:06:01.213Z,22.67
2023-05-21T21:08:28.416Z,22.85
2023-05-21T21:10:55.791Z,23.92
2023-05-21T21:13:23.006Z,26.30
2023-05-21T21:15:50.315Z,21.95
2023-05-21T21:18:17.590Z,21.35
2023-05-21T21:20:49.380Z,23.20
2023-05-21T21:23:16.634Z,20.17
2023-05-21T21:25:43.808Z,22.48
2023-05-21T21:28:11.037Z,23.48
2023-05-21T21:30:40.893Z,23.23
2023-05-21T21:33:08.938Z,24.48
2023-05-21T21:35:36.274Z,23.83
2023-05-21T21:38:04.954Z,23.52
2023-05-21T21:40:32.315Z,20.23
2023-05-21T21:42:59.460Z,22.50
2023-05-21T21:45:26.858Z,21.35
2023-05-21T21:47:54.123Z,21.90
2023-05-21T21:50:21.375Z,22.45
2023-05-21T21:52:49.006Z,23.52
2023-05-21T21:55:16.404Z,23.63
2023-05-21T21:57:43.565Z,26.33
2023-05-21T22:00:11.707Z,22.92
2023-05-21T22:02:40.253Z,21.15
2023-05-21T22:05:08.748Z,24.45
2023-05-21T22:07:38.802Z,23.75
2023-05-21T22:10:06.669Z,22.02
2023-05-21T22:12:34.235Z,23.73
2023-05-21T22:15:05.772Z,23.02
2023-05-21T22:17:33.161Z,24.48
2023-05-21T22:20:00.910Z,27.92
2023-05-21T22:22:28.151Z,26.90
2023-05-21T22:24:55.545Z,25.40
2023-05-21T22:27:22.881Z,27.48
2023-05-21T22:29:50.063Z,23.02
2023-05-21T22:32:17.538Z,29.65
2023-05-21T22:34:44.763Z,24.48
2023-05-21T22:37:12.391Z,26.70
2023-05-21T22:39:39.622Z,27.15
2023-05-21T22:42:07.003Z,26.00
2023-05-21T22:44:34.168Z,26.88
2023-05-21T22:47:03.340Z,27.83
2023-05-21T22:49:32.715Z,28.85
2023-05-21T22:52:05.232Z,28.73
2023-05-21T22:54:32.990Z,26.27
2023-05-21T22:57:01.143Z,28.02
2023-05-21T22:59:33.147Z,27.35
2023-05-21T23:02:00.425Z,28.08
2023-05-21T23:04:42.709Z,28.52
2023-05-21T23:07:11.033Z,30.52
2023-05-21T23:09:38.392Z,30.80
2023-05-21T23:12:05.664Z,37.60
2023-05-21T23:14:32.866Z,27.40
2023-05-21T23:17:02.058Z,27.98
2023-05-21T23:19:30.007Z,28.63
2023-05-21T23:21:57.652Z,30.27
2023-05-21T23:24:24.928Z,33.35
2023-05-21T23:26:52.831Z,26.70
2023-05-21T23:29:20.081Z,30.05
2023-05-21T23:31:47.442Z,30.10
2023-05-21T23:34:14.725Z,28.92
2023-05-21T23:36:42.060Z,23.48
2023-05-21T23:39:09.414Z,30.92
2023-05-21T23:41:36.703Z,25.88
2023-05-21T23:44:04.048Z,31.10
2023-05-21T23:46:31.246Z,35.83
2023-05-21T23:48:58.333Z,32.95
2023-05-21T23:51:25.753Z,34.30
2023-05-21T23:53:53.068Z,34.03
2023-05-21T23:56:20.335Z,34.45
2023-05-21T23:58:47.534Z,29.95
